Time;durP1;ratioP1;P1;durP2;ratioP2;P2;SDS_P1;SDS_P2;PMS_P1;PMS_P2;Temp;Humidity;BMP_temperature;BMP_pressure;BME280_temperature;BME280_humidity;BME280_pressure;Samples;Min_cycle;Max_cycle;Signal;HPM_P1;HPM_P2
2021/12/22 00:02:27;;;;;;;0.50;0.40;;;-2.60;99.90;;;;;;4995277;28;20022;-66
2021/12/22 00:04:54;;;;;;;0.60;0.50;;;-2.60;99.90;;;;;;4999165;28;20042;-66
2021/12/22 00:07:19;;;;;;;0.43;0.25;;;-2.50;99.90;;;;;;4993707;28;20450;-66
2021/12/22 00:09:45;;;;;;;0.40;0.40;;;-2.60;99.90;;;;;;4993509;28;20120;-65
2021/12/22 00:12:11;;;;;;;0.32;0.32;;;-2.50;99.90;;;;;;5003382;28;20076;-66
2021/12/22 00:14:37;;;;;;;0.60;0.43;;;-2.50;99.90;;;;;;4993466;28;20030;-66
2021/12/22 00:17:03;;;;;;;0.60;0.38;;;-2.50;99.90;;;;;;5002839;28;20128;-66
2021/12/22 00:19:28;;;;;;;0.30;0.30;;;-2.60;99.90;;;;;;4992932;28;20073;-65
2021/12/22 00:21:54;;;;;;;0.30;0.30;;;-2.60;99.90;;;;;;5000321;28;20025;-65
2021/12/22 00:24:19;;;;;;;0.10;0.10;;;-2.60;99.90;;;;;;4992933;28;20034;-66
2021/12/22 00:26:45;;;;;;;0.17;0.17;;;-2.60;99.90;;;;;;4995770;28;20034;-65
2021/12/22 00:29:13;;;;;;;0.50;0.38;;;-2.50;99.90;;;;;;4994280;28;20031;-66
2021/12/22 00:31:58;;;;;;;0.20;0.20;;;-2.60;99.90;;;;;;4996323;28;20022;-67
2021/12/22 00:34:26;;;;;;;0.10;0.10;;;-2.70;99.90;;;;;;4992634;28;20065;-66
2021/12/22 00:36:52;;;;;;;0.13;0.13;;;-2.70;99.90;;;;;;4993995;28;20435;-66
2021/12/22 00:39:18;;;;;;;0.20;0.10;;;-2.60;99.90;;;;;;4992743;28;20050;-66
2021/12/22 00:41:43;;;;;;;0.20;0.20;;;-2.60;99.90;;;;;;5004138;28;20405;-66
2021/12/22 00:44:12;;;;;;;0.00;0.00;;;-2.70;99.90;;;;;;4992874;28;20113;-66
2021/12/22 00:46:38;;;;;;;0.17;0.10;;;-2.70;99.90;;;;;;5008849;28;20483;-66
2021/12/22 00:49:03;;;;;;;0.10;0.10;;;-2.70;99.90;;;;;;4992931;28;20038;-66
2021/12/22 00:51:29;;;;;;;0.47;0.28;;;-2.80;99.90;;;;;;5000852;28;20105;-66
2021/12/22 00:53:54;;;;;;;0.10;0.10;;;-2.80;99.90;;;;;;4991948;28;20026;-66
2021/12/22 00:56:20;;;;;;;0.10;0.10;;;-2.80;99.90;;;;;;4993648;28;20022;-66
2021/12/22 00:58:45;;;;;;;0.00;0.00;;;-2.70;99.90;;;;;;4992745;28;20033;-66
2021/12/22 01:01:11;;;;;;;0.00;0.00;;;-2.70;99.90;;;;;;4998078;28;20567;-66
2021/12/22 01:03:37;;;;;;;0.15;0.15;;;-2.80;99.90;;;;;;4992677;28;20023;-65
2021/12/22 01:06:03;;;;;;;0.15;0.15;;;-2.80;99.90;;;;;;4993851;28;20440;-66
2021/12/22 01:08:29;;;;;;;0.10;0.10;;;-2.80;99.90;;;;;;4992879;28;20054;-65
2021/12/22 01:10:54;;;;;;;0.00;0.00;;;-2.90;99.90;;;;;;4993524;28;20054;-65
2021/12/22 01:13:20;;;;;;;0.00;0.00;;;-2.90;99.90;;;;;;4992719;28;20033;-65
2021/12/22 01:15:46;;;;;;;0.00;0.00;;;-2.90;99.90;;;;;;4996837;28;20030;-65
2021/12/22 01:18:15;;;;;;;0.00;0.00;;;-2.90;99.90;;;;;;4992875;28;20018;-66
2021/12/22 01:23:20;;;;;;;0.10;0.10;;;-3.00;99.90;;;;;;4995380;28;20023;-65
2021/12/22 01:25:47;;;;;;;0.00;0.00;;;-3.00;99.90;;;;;;5002126;28;20386;-65
2021/12/22 01:28:14;;;;;;;0.00;0.00;;;-3.00;99.90;;;;;;4992623;28;20034;-65
2021/12/22 01:30:44;;;;;;;0.10;0.00;;;-3.00;99.90;;;;;;4991974;28;20476;-65
2021/12/22 01:33:10;;;;;;;0.00;0.00;;;-3.00;99.90;;;;;;4990747;28;20030;-66
2021/12/22 01:35:37;;;;;;;0.00;0.00;;;-3.00;99.90;;;;;;4997707;28;20025;-66
2021/12/22 01:38:04;;;;;;;0.00;0.00;;;-3.00;99.90;;;;;;4994180;28;20109;-65
2021/12/22 01:40:31;;;;;;;0.15;0.15;;;-3.00;99.90;;;;;;4993847;28;20033;-66
2021/12/22 01:42:58;;;;;;;0.10;0.10;;;-3.10;99.90;;;;;;4994466;28;20036;-66
2021/12/22 01:45:36;;;;;;;0.00;0.00;;;-3.10;99.90;;;;;;4992703;28;20086;-66
2021/12/22 01:50:49;;;;;;;0.00;0.00;;;-3.20;99.90;;;;;;5003064;28;20091;-66
2021/12/22 01:53:21;;;;;;;0.00;0.00;;;-3.20;99.90;;;;;;4986095;28;20045;-66
2021/12/22 01:56:10;;;;;;;0.00;0.00;;;-3.30;99.90;;;;;;4996270;28;20034;-66
2021/12/22 01:58:39;;;;;;;0.00;0.00;;;-3.30;99.90;;;;;;4991861;28;20038;-66
2021/12/22 02:01:05;;;;;;;0.00;0.00;;;-3.20;99.90;;;;;;4992650;28;20478;-66
2021/12/22 02:03:32;;;;;;;0.00;0.00;;;-3.20;99.90;;;;;;4991992;28;20038;-66
2021/12/22 02:05:57;;;;;;;0.00;0.00;;;-3.20;99.90;;;;;;4995072;28;20026;-66
2021/12/22 02:08:23;;;;;;;0.00;0.00;;;-3.20;99.90;;;;;;4993678;28;20462;-66
2021/12/22 02:10:49;;;;;;;0.00;0.00;;;-3.20;99.90;;;;;;4996115;28;20022;-66
2021/12/22 02:13:21;;;;;;;0.00;0.00;;;-3.20;99.90;;;;;;4995293;28;20035;-66
2021/12/22 02:15:47;;;;;;;0.00;0.00;;;-3.20;99.90;;;;;;4999611;28;20089;-66
2021/12/22 02:18:17;;;;;;;0.00;0.00;;;-3.20;99.90;;;;;;4995492;28;20061;-66
2021/12/22 02:20:44;;;;;;;0.00;0.00;;;-3.20;99.90;;;;;;4995334;28;20057;-66
2021/12/22 02:23:09;;;;;;;0.00;0.00;;;-3.20;99.90;;;;;;4995753;28;20101;-66
2021/12/22 02:25:43;;;;;;;0.00;0.00;;;-3.20;99.90;;;;;;4996093;28;20133;-66
2021/12/22 02:28:15;;;;;;;0.00;0.00;;;-3.20;99.90;;;;;;4997763;28;20065;-66
2021/12/22 02:30:41;;;;;;;0.10;0.00;;;-3.30;99.90;;;;;;4993993;28;20038;-66
2021/12/22 02:33:23;;;;;;;0.00;0.00;;;-3.20;99.90;;;;;;4995805;28;20025;-66
2021/12/22 02:38:30;;;;;;;0.00;0.00;;;-3.30;99.90;;;;;;4995515;28;20019;-66
2021/12/22 02:40:55;;;;;;;0.00;0.00;;;-3.20;99.90;;;;;;4995966;28;20109;-66
2021/12/22 02:43:23;;;;;;;0.00;0.00;;;-3.30;99.90;;;;;;4995296;28;20133;-66
2021/12/22 02:45:51;;;;;;;0.00;0.00;;;-3.20;99.90;;;;;;5004038;28;20034;-66
2021/12/22 02:48:17;;;;;;;0.00;0.00;;;-3.30;99.90;;;;;;4995049;28;20026;-66
2021/12/22 02:50:43;;;;;;;0.00;0.00;;;-3.30;99.90;;;;;;4999103;28;20065;-66
2021/12/22 02:53:13;;;;;;;0.00;0.00;;;-3.40;99.90;;;;;;4995279;28;20096;-66
2021/12/22 02:55:46;;;;;;;0.00;0.00;;;-3.40;99.90;;;;;;5005089;28;20065;-66
2021/12/22 02:59:02;;;;;;;0.00;0.00;;;-3.40;99.90;;;;;;4994778;28;20458;-66
2021/12/22 03:01:24;;;;;;;0.00;0.00;;;-3.50;99.90;;;;;;4994946;28;20045;-66
2021/12/22 03:06:30;;;;;;;0.00;0.00;;;-3.50;99.90;;;;;;4994925;28;20042;-66
2021/12/22 03:08:56;;;;;;;0.00;0.00;;;-3.60;99.90;;;;;;4994800;28;20048;-66
2021/12/22 03:11:22;;;;;;;0.00;0.00;;;-3.60;99.90;;;;;;4993388;28;20509;-66
2021/12/22 03:13:47;;;;;;;0.00;0.00;;;-3.60;99.90;;;;;;4993440;28;20129;-66
2021/12/22 03:16:13;;;;;;;0.00;0.00;;;-3.70;99.90;;;;;;4988933;28;20054;-66
2021/12/22 03:18:39;;;;;;;0.00;0.00;;;-3.70;99.90;;;;;;4994117;28;20019;-66
2021/12/22 03:21:19;;;;;;;0.00;0.00;;;-3.70;99.90;;;;;;4992750;28;20354;-66
2021/12/22 03:23:45;;;;;;;0.00;0.00;;;-3.80;99.90;;;;;;4981705;28;20038;-66
2021/12/22 03:26:13;;;;;;;0.00;0.00;;;-3.80;99.90;;;;;;4993447;28;20374;-66
2021/12/22 03:28:39;;;;;;;0.00;0.00;;;-3.80;99.90;;;;;;4992891;28;20066;-66
2021/12/22 03:31:04;;;;;;;0.00;0.00;;;-3.90;99.90;;;;;;4993322;28;20054;-66
2021/12/22 03:33:30;;;;;;;0.00;0.00;;;-3.90;99.90;;;;;;4992903;28;20061;-66
2021/12/22 03:35:56;;;;;;;0.00;0.00;;;-3.90;99.90;;;;;;4991767;28;20068;-66
2021/12/22 03:38:21;;;;;;;0.00;0.00;;;-4.00;99.90;;;;;;4993234;28;20018;-66
2021/12/22 03:40:47;;;;;;;0.00;0.00;;;-3.90;99.90;;;;;;4994161;28;20062;-66
2021/12/22 03:43:12;;;;;;;0.00;0.00;;;-4.00;99.90;;;;;;4994281;28;20030;-66
2021/12/22 03:45:38;;;;;;;0.00;0.00;;;-4.00;99.90;;;;;;4996855;28;20058;-65
2021/12/22 03:48:03;;;;;;;0.00;0.00;;;-4.00;99.90;;;;;;4994227;28;20094;-66
2021/12/22 03:50:29;;;;;;;0.00;0.00;;;-4.10;99.90;;;;;;4994117;28;20022;-66
2021/12/22 03:52:54;;;;;;;0.00;0.00;;;-4.10;99.90;;;;;;4994744;28;20041;-66
2021/12/22 03:55:20;;;;;;;0.00;0.00;;;-4.10;99.90;;;;;;4999691;28;20040;-66
2021/12/22 03:57:46;;;;;;;0.00;0.00;;;-4.10;99.90;;;;;;4993796;28;20117;-66
2021/12/22 04:00:12;;;;;;;0.00;0.00;;;-4.20;99.90;;;;;;4994049;28;20125;-66
2021/12/22 04:02:38;;;;;;;0.00;0.00;;;-4.20;99.90;;;;;;4993992;28;20031;-66
2021/12/22 04:05:05;;;;;;;0.00;0.00;;;-4.20;99.90;;;;;;4996907;28;20040;-66
2021/12/22 04:07:31;;;;;;;0.00;0.00;;;-4.20;99.90;;;;;;4993777;28;20038;-66
2021/12/22 04:09:58;;;;;;;0.00;0.00;;;-4.20;99.90;;;;;;4994566;28;20088;-66
2021/12/22 04:12:24;;;;;;;0.00;0.00;;;-4.20;99.90;;;;;;4993038;28;20033;-66
2021/12/22 04:14:49;;;;;;;0.00;0.00;;;-4.20;99.90;;;;;;4997553;28;20034;-65
2021/12/22 04:17:15;;;;;;;0.00;0.00;;;-4.20;99.90;;;;;;4993811;28;20022;-66
2021/12/22 04:19:40;;;;;;;0.00;0.00;;;-4.20;99.90;;;;;;4993085;28;20072;-66
2021/12/22 04:22:07;;;;;;;0.00;0.00;;;-4.30;99.90;;;;;;4992868;28;20057;-66
2021/12/22 04:24:33;;;;;;;0.00;0.00;;;-4.30;99.90;;;;;;5000574;28;20060;-66
2021/12/22 04:26:58;;;;;;;0.00;0.00;;;-4.30;99.90;;;;;;4997125;28;20418;-66
2021/12/22 04:29:24;;;;;;;0.00;0.00;;;-4.30;99.90;;;;;;4993714;28;20076;-66
2021/12/22 04:31:49;;;;;;;0.00;0.00;;;-4.30;99.90;;;;;;4992668;28;20121;-66
2021/12/22 04:34:15;;;;;;;0.00;0.00;;;-4.30;99.90;;;;;;4997543;28;20030;-66
2021/12/22 04:36:41;;;;;;;0.00;0.00;;;-4.40;99.90;;;;;;4993763;28;20076;-65
2021/12/22 04:39:08;;;;;;;0.00;0.00;;;-4.30;99.90;;;;;;4995656;28;20025;-65
2021/12/22 04:41:34;;;;;;;0.00;0.00;;;-4.30;99.90;;;;;;4992284;28;20030;-65
2021/12/22 04:44:00;;;;;;;0.00;0.00;;;-4.30;99.90;;;;;;4993941;28;20043;-65
2021/12/22 04:46:25;;;;;;;0.00;0.00;;;-4.30;99.90;;;;;;4993965;28;20030;-66
2021/12/22 04:48:51;;;;;;;0.00;0.00;;;-4.30;99.90;;;;;;4993892;28;20109;-65
2021/12/22 04:51:29;;;;;;;0.00;0.00;;;-4.30;99.90;;;;;;4992425;28;20109;-66
2021/12/22 04:56:27;;;;;;;0.00;0.00;;;-4.20;99.90;;;;;;4993674;28;20458;-66
2021/12/22 04:58:52;;;;;;;0.00;0.00;;;-4.10;99.90;;;;;;5002472;28;20113;-66
2021/12/22 05:01:18;;;;;;;0.00;0.00;;;-4.00;99.90;;;;;;4992253;28;20022;-65
2021/12/22 05:03:44;;;;;;;0.00;0.00;;;-4.00;99.90;;;;;;5000557;28;20033;-66
2021/12/22 05:06:09;;;;;;;0.00;0.00;;;-3.90;99.90;;;;;;5001175;28;20041;-66
2021/12/22 05:08:35;;;;;;;0.00;0.00;;;-3.90;99.90;;;;;;4993770;28;20447;-66
2021/12/22 05:11:01;;;;;;;0.00;0.00;;;-3.90;99.90;;;;;;4991915;28;20034;-66
2021/12/22 05:13:26;;;;;;;0.00;0.00;;;-3.80;99.90;;;;;;4997563;28;20465;-66
2021/12/22 05:15:52;;;;;;;0.00;0.00;;;-3.80;99.90;;;;;;4993686;28;20030;-66
2021/12/22 05:20:48;;;;;;;0.00;0.00;;;-3.70;99.90;;;;;;4991948;28;20425;-65
2021/12/22 05:23:14;;;;;;;0.00;0.00;;;-3.60;99.90;;;;;;4993187;28;20022;-66
2021/12/22 05:25:39;;;;;;;0.00;0.00;;;-3.60;99.90;;;;;;4993214;28;20026;-66
2021/12/22 05:28:05;;;;;;;0.00;0.00;;;-3.60;99.90;;;;;;4993048;28;20446;-66
2021/12/22 05:30:31;;;;;;;0.00;0.00;;;-3.60;99.90;;;;;;4991969;28;20454;-66
2021/12/22 05:32:56;;;;;;;0.00;0.00;;;-3.60;99.90;;;;;;4993991;28;20030;-66
2021/12/22 05:35:23;;;;;;;0.00;0.00;;;-3.50;99.90;;;;;;4992438;28;20074;-66
2021/12/22 05:37:49;;;;;;;0.00;0.00;;;-3.50;99.90;;;;;;4993882;28;20389;-66
2021/12/22 05:40:15;;;;;;;0.00;0.00;;;-3.50;99.90;;;;;;4992440;28;20033;-66
2021/12/22 05:42:42;;;;;;;0.00;0.00;;;-3.40;99.90;;;;;;4997471;28;20021;-66
2021/12/22 05:45:08;;;;;;;0.00;0.00;;;-3.40;99.90;;;;;;5005050;28;20026;-65
2021/12/22 05:47:33;;;;;;;0.00;0.00;;;-3.40;99.90;;;;;;4996316;28;20034;-65
2021/12/22 05:49:59;;;;;;;0.00;0.00;;;-3.40;99.90;;;;;;5001941;28;20022;-65
2021/12/22 05:52:25;;;;;;;0.00;0.00;;;-3.40;99.90;;;;;;4995892;28;20454;-66
2021/12/22 05:54:50;;;;;;;0.00;0.00;;;-3.40;99.90;;;;;;4996327;28;20077;-66
2021/12/22 05:57:16;;;;;;;0.00;0.00;;;-3.40;99.90;;;;;;4996143;28;20027;-66
2021/12/22 05:59:42;;;;;;;0.00;0.00;;;-3.40;99.90;;;;;;4995841;28;20359;-66
2021/12/22 06:02:07;;;;;;;0.00;0.00;;;-3.30;99.90;;;;;;4996356;28;20425;-65
2021/12/22 06:04:33;;;;;;;0.00;0.00;;;-3.30;99.90;;;;;;4995824;28;20373;-66
2021/12/22 06:06:58;;;;;;;0.00;0.00;;;-3.30;99.90;;;;;;5002265;28;20025;-66
2021/12/22 06:09:24;;;;;;;0.00;0.00;;;-3.20;99.90;;;;;;4995580;28;20080;-66
2021/12/22 06:11:56;;;;;;;0.00;0.00;;;-3.30;99.90;;;;;;4999089;28;20048;-66
2021/12/22 06:14:21;;;;;;;0.00;0.00;;;-3.30;99.90;;;;;;4994965;28;20117;-66
2021/12/22 06:16:47;;;;;;;0.00;0.00;;;-3.20;99.90;;;;;;5000481;28;20128;-66
2021/12/22 06:19:13;;;;;;;0.00;0.00;;;-3.20;99.90;;;;;;4996131;28;20027;-66
2021/12/22 06:21:39;;;;;;;0.00;0.00;;;-3.20;99.90;;;;;;4994918;28;20038;-66
2021/12/22 06:24:05;;;;;;;0.00;0.00;;;-3.20;99.90;;;;;;4995280;28;20038;-66
2021/12/22 06:26:30;;;;;;;0.00;0.00;;;-3.20;99.90;;;;;;4998515;28;20125;-66
2021/12/22 06:28:56;;;;;;;0.00;0.00;;;-3.20;99.90;;;;;;4995282;28;20026;-66
2021/12/22 06:31:21;;;;;;;0.00;0.00;;;-3.20;99.90;;;;;;4994984;28;20060;-66
2021/12/22 06:33:47;;;;;;;0.00;0.00;;;-3.10;99.90;;;;;;4995464;28;20056;-66
2021/12/22 06:36:14;;;;;;;0.00;0.00;;;-3.20;99.90;;;;;;4995350;28;20030;-66
2021/12/22 06:38:40;;;;;;;0.00;0.00;;;-3.20;99.90;;;;;;4994982;28;20084;-66
2021/12/22 06:41:06;;;;;;;0.00;0.00;;;-3.20;99.90;;;;;;4994804;28;20037;-66
2021/12/22 06:43:32;;;;;;;0.00;0.00;;;-3.20;99.90;;;;;;4989519;28;20522;-66
2021/12/22 06:45:58;;;;;;;0.00;0.00;;;-3.20;99.90;;;;;;4982997;28;20030;-66
2021/12/22 06:48:23;;;;;;;0.00;0.00;;;-3.20;99.90;;;;;;4995011;28;20476;-66
2021/12/22 06:50:49;;;;;;;0.00;0.00;;;-3.30;99.90;;;;;;4993531;28;20030;-66
2021/12/22 06:53:15;;;;;;;0.00;0.00;;;-3.30;99.90;;;;;;4994993;28;20111;-66
2021/12/22 06:55:40;;;;;;;0.00;0.00;;;-3.40;99.90;;;;;;4989905;28;20026;-65
2021/12/22 06:58:06;;;;;;;0.00;0.00;;;-3.40;99.90;;;;;;4985221;28;20366;-65
2021/12/22 07:00:32;;;;;;;0.00;0.00;;;-3.50;99.90;;;;;;4992543;28;20089;-66
2021/12/22 07:02:58;;;;;;;0.00;0.00;;;-3.50;99.90;;;;;;4995088;28;20030;-65
2021/12/22 07:05:24;;;;;;;0.00;0.00;;;-3.50;99.90;;;;;;4992465;28;20425;-66
2021/12/22 07:07:49;;;;;;;0.00;0.00;;;-3.60;99.90;;;;;;4994851;28;20023;-66
2021/12/22 07:10:16;;;;;;;0.00;0.00;;;-3.60;99.90;;;;;;4993044;28;20034;-66
2021/12/22 07:12:45;;;;;;;0.00;0.00;;;-3.60;99.90;;;;;;4994966;28;20026;-66
2021/12/22 07:15:13;;;;;;;0.00;0.00;;;-3.60;99.90;;;;;;4995395;28;20473;-66
2021/12/22 07:17:40;;;;;;;0.00;0.00;;;-3.60;99.90;;;;;;4994541;28;20065;-65
2021/12/22 07:20:07;;;;;;;0.00;0.00;;;-3.60;99.90;;;;;;4995163;28;20112;-66
2021/12/22 07:22:34;;;;;;;0.00;0.00;;;-3.60;99.90;;;;;;5004163;28;20056;-66
2021/12/22 07:24:59;;;;;;;0.00;0.00;;;-3.60;99.90;;;;;;4993555;28;20074;-66
2021/12/22 07:27:25;;;;;;;0.00;0.00;;;-3.60;99.90;;;;;;4994321;28;20054;-65
2021/12/22 07:29:51;;;;;;;0.00;0.00;;;-3.60;99.90;;;;;;4995187;28;20030;-65
2021/12/22 07:32:16;;;;;;;0.00;0.00;;;-3.70;99.90;;;;;;4993647;28;20473;-66
2021/12/22 07:35:00;;;;;;;0.00;0.00;;;-3.70;99.90;;;;;;4993965;28;21299;-66
2021/12/22 07:37:40;;;;;;;0.00;0.00;;;-3.70;99.90;;;;;;4987798;28;20473;-66
2021/12/22 07:40:11;;;;;;;0.00;0.00;;;-3.70;99.90;;;;;;4993633;28;20041;-66
2021/12/22 07:42:37;;;;;;;0.00;0.00;;;-3.70;99.90;;;;;;4996274;28;20030;-66
2021/12/22 07:45:03;;;;;;;0.00;0.00;;;-3.70;99.90;;;;;;4997036;28;20032;-66
2021/12/22 07:47:29;;;;;;;0.00;0.00;;;-3.60;99.90;;;;;;4993693;28;20030;-66
2021/12/22 07:49:55;;;;;;;0.00;0.00;;;-3.70;99.90;;;;;;4994878;28;21706;-65
2021/12/22 07:52:20;;;;;;;0.00;0.00;;;-3.70;99.90;;;;;;4995530;28;20177;-66
2021/12/22 07:54:46;;;;;;;0.00;0.00;;;-3.60;99.90;;;;;;4993884;28;20034;-66
2021/12/22 07:57:11;;;;;;;0.00;0.00;;;-3.70;99.90;;;;;;4993839;28;20029;-65
2021/12/22 07:59:37;;;;;;;0.00;0.00;;;-3.60;99.90;;;;;;4993634;28;20462;-66
2021/12/22 08:02:03;;;;;;;0.00;0.00;;;-3.60;99.90;;;;;;4992919;28;20026;-65
2021/12/22 08:04:29;;;;;;;0.00;0.00;;;-3.50;99.90;;;;;;4993093;28;20413;-65
2021/12/22 08:06:55;;;;;;;0.00;0.00;;;-3.50;99.90;;;;;;4998628;28;20490;-65
2021/12/22 08:09:25;;;;;;;0.00;0.00;;;-3.50;99.90;;;;;;4998923;28;20421;-65
2021/12/22 08:11:53;;;;;;;0.00;0.00;;;-3.40;99.90;;;;;;4995418;28;20030;-66
2021/12/22 08:14:18;;;;;;;0.00;0.00;;;-3.40;99.90;;;;;;4993168;28;20616;-65
2021/12/22 08:16:44;;;;;;;0.00;0.00;;;-3.30;99.90;;;;;;4997336;28;20121;-65
2021/12/22 08:19:09;;;;;;;0.00;0.00;;;-3.30;99.90;;;;;;4996416;28;20038;-65
2021/12/22 08:21:35;;;;;;;0.00;0.00;;;-3.20;99.90;;;;;;4992636;28;20060;-66
2021/12/22 08:24:00;;;;;;;0.00;0.00;;;-3.20;99.90;;;;;;4993456;28;20030;-66
2021/12/22 08:26:27;;;;;;;0.00;0.00;;;-3.20;99.90;;;;;;4993085;28;20030;-66
2021/12/22 08:28:52;;;;;;;0.00;0.00;;;-3.10;99.90;;;;;;4993295;28;20105;-66
2021/12/22 08:31:18;;;;;;;0.00;0.00;;;-3.10;99.90;;;;;;4989661;28;20117;-66
2021/12/22 08:33:46;;;;;;;0.00;0.00;;;-3.00;99.90;;;;;;4991942;28;20422;-66
2021/12/22 08:39:00;;;;;;;0.00;0.00;;;-2.80;99.90;;;;;;4993183;28;20032;-66
2021/12/22 08:41:31;;;;;;;0.00;0.00;;;-2.60;99.90;;;;;;4991639;28;20030;-66
2021/12/22 08:44:00;;;;;;;0.00;0.00;;;-2.50;99.90;;;;;;4992968;28;20088;-66
2021/12/22 08:46:27;;;;;;;0.00;0.00;;;-2.40;99.90;;;;;;4993025;28;20462;-67
2021/12/22 08:48:53;;;;;;;0.00;0.00;;;-2.30;99.90;;;;;;4992439;28;20026;-67
2021/12/22 08:51:18;;;;;;;0.00;0.00;;;-2.20;99.90;;;;;;4992044;28;20026;-65
2021/12/22 08:53:44;;;;;;;0.00;0.00;;;-2.10;99.90;;;;;;4992226;28;20049;-67
2021/12/22 08:56:09;;;;;;;0.00;0.00;;;-2.20;99.90;;;;;;4992544;28;20047;-68
2021/12/22 08:58:35;;;;;;;0.00;0.00;;;-2.20;99.90;;;;;;4992851;28;20053;-69
2021/12/22 09:01:01;;;;;;;0.00;0.00;;;-2.10;99.90;;;;;;4992333;28;20100;-69
2021/12/22 09:03:27;;;;;;;0.00;0.00;;;-2.00;99.90;;;;;;4992837;28;20022;-68
2021/12/22 09:05:53;;;;;;;0.00;0.00;;;-2.00;99.90;;;;;;4992983;28;20393;-69
2021/12/22 09:08:18;;;;;;;0.00;0.00;;;-1.90;99.90;;;;;;4992838;28;20034;-69
2021/12/22 09:10:44;;;;;;;0.00;0.00;;;-1.80;99.90;;;;;;4992073;28;20026;-69
2021/12/22 09:13:11;;;;;;;0.00;0.00;;;-1.80;99.90;;;;;;4992887;28;20177;-71
2021/12/22 09:15:37;;;;;;;0.00;0.00;;;-1.60;99.90;;;;;;4996292;28;20027;-71
2021/12/22 09:18:03;;;;;;;0.00;0.00;;;-1.60;99.90;;;;;;4996977;28;20045;-70
2021/12/22 09:20:29;;;;;;;0.00;0.00;;;-1.50;99.90;;;;;;4996457;28;20034;-70
2021/12/22 09:22:55;;;;;;;0.00;0.00;;;-1.50;99.90;;;;;;4996802;28;20030;-70
2021/12/22 09:25:21;;;;;;;0.00;0.00;;;-1.40;99.90;;;;;;4996496;28;20030;-70
2021/12/22 09:27:46;;;;;;;0.00;0.00;;;-1.30;99.90;;;;;;4996899;28;20069;-69
2021/12/22 09:30:12;;;;;;;0.00;0.00;;;-1.40;99.90;;;;;;4996175;28;20558;-70
2021/12/22 09:32:38;;;;;;;0.00;0.00;;;-1.30;99.90;;;;;;5000210;28;20041;-70
2021/12/22 09:35:04;;;;;;;0.00;0.00;;;-1.20;99.90;;;;;;5010719;28;20053;-70
2021/12/22 09:37:30;;;;;;;0.00;0.00;;;-1.20;99.90;;;;;;5010379;28;20037;-69
2021/12/22 09:39:56;;;;;;;0.00;0.00;;;-1.10;99.90;;;;;;4996374;28;20030;-70
2021/12/22 09:42:21;;;;;;;0.00;0.00;;;-1.00;99.90;;;;;;4996392;28;20369;-69
2021/12/22 09:44:47;;;;;;;0.00;0.00;;;-1.00;99.90;;;;;;4999371;28;20026;-70
2021/12/22 09:47:17;;;;;;;0.10;0.10;;;-1.00;99.90;;;;;;5010844;28;20512;-68
2021/12/22 09:52:17;;;;;;;0.10;0.10;;;-0.60;99.90;;;;;;4997740;28;20473;-67
2021/12/22 09:54:43;;;;;;;0.00;0.00;;;-0.50;99.90;;;;;;5003154;28;20037;-68
2021/12/22 09:57:10;;;;;;;0.00;0.00;;;-0.40;99.90;;;;;;4999713;28;20021;-69
2021/12/22 09:59:36;;;;;;;0.00;0.00;;;-0.50;99.90;;;;;;4995594;28;20041;-69
2021/12/22 10:02:02;;;;;;;0.00;0.00;;;-0.50;99.90;;;;;;4996310;28;20022;-68
2021/12/22 10:04:28;;;;;;;0.00;0.00;;;-0.40;99.90;;;;;;4995917;28;20053;-69
2021/12/22 10:06:54;;;;;;;0.00;0.00;;;-0.30;99.90;;;;;;4995795;28;20472;-69
2021/12/22 10:09:24;;;;;;;0.00;0.00;;;-0.20;99.90;;;;;;4996101;28;20018;-69
2021/12/22 10:11:50;;;;;;;0.00;0.00;;;-0.20;99.90;;;;;;4995087;28;20030;-68
2021/12/22 10:14:22;;;;;;;0.00;0.00;;;-0.10;99.90;;;;;;4999190;28;20040;-68
2021/12/22 10:16:51;;;;;;;0.00;0.00;;;-0.10;99.90;;;;;;4995722;28;20050;-69
2021/12/22 10:19:17;;;;;;;0.00;0.00;;;-0.10;99.90;;;;;;4997934;28;20589;-69
2021/12/22 10:21:58;;;;;;;0.00;0.00;;;0.00;99.90;;;;;;4995327;28;20536;-69
2021/12/22 10:24:59;;;;;;;0.00;0.00;;;0.10;99.90;;;;;;4995449;28;20041;-69
2021/12/22 10:27:26;;;;;;;0.00;0.00;;;0.20;99.90;;;;;;4997935;28;20034;-69
2021/12/22 10:29:52;;;;;;;0.00;0.00;;;0.10;99.90;;;;;;5000516;28;20022;-69
2021/12/22 10:32:18;;;;;;;0.00;0.00;;;0.20;99.90;;;;;;4995914;28;20033;-69
2021/12/22 10:35:12;;;;;;;0.00;0.00;;;0.10;99.90;;;;;;4996346;28;20544;-69
2021/12/22 10:37:43;;;;;;;0.00;0.00;;;0.10;99.90;;;;;;5000613;28;20033;-69
2021/12/22 10:40:29;;;;;;;0.00;0.00;;;0.20;99.90;;;;;;4993627;28;20117;-68
2021/12/22 10:42:56;;;;;;;0.00;0.00;;;0.20;99.90;;;;;;4993975;28;20022;-68
2021/12/22 10:45:24;;;;;;;0.00;0.00;;;0.30;99.90;;;;;;4994723;28;20034;-69
2021/12/22 10:50:41;;;;;;;0.00;0.00;;;0.20;99.90;;;;;;4993972;28;20512;-68
2021/12/22 10:53:08;;;;;;;0.00;0.00;;;0.10;99.90;;;;;;4993705;28;20057;-69
2021/12/22 10:55:45;;;;;;;0.00;0.00;;;0.10;99.90;;;;;;4994355;28;20034;-69
2021/12/22 10:58:29;;;;;;;0.00;0.00;;;0.20;99.90;;;;;;4994923;28;20085;-69
2021/12/22 11:01:17;;;;;;;0.00;0.00;;;0.30;99.90;;;;;;4992996;28;20351;-69
2021/12/22 11:03:54;;;;;;;0.00;0.00;;;0.50;99.90;;;;;;4988597;28;20049;-69
2021/12/22 11:06:28;;;;;;;0.00;0.00;;;0.80;99.90;;;;;;4992128;28;20053;-69
2021/12/22 11:08:55;;;;;;;;;;;0.80;99.90;;;;;;4991750;28;20034;-68
2021/12/22 11:11:20;;;;;;;0.00;0.00;;;0.80;99.90;;;;;;4992852;28;20544;-68
2021/12/22 11:14:01;;;;;;;0.00;0.00;;;0.80;99.90;;;;;;4992411;28;20133;-69
2021/12/22 11:16:30;;;;;;;0.00;0.00;;;0.70;99.90;;;;;;4994884;28;20027;-68
2021/12/22 11:19:08;;;;;;;0.00;0.00;;;0.70;99.90;;;;;;4990333;28;20035;-69
2021/12/22 11:21:35;;;;;;;0.00;0.00;;;0.60;99.90;;;;;;4993882;28;20085;-68
2021/12/22 11:24:01;;;;;;;0.00;0.00;;;0.50;99.90;;;;;;4993016;28;20706;-68
2021/12/22 11:26:27;;;;;;;0.00;0.00;;;0.40;99.90;;;;;;4993957;28;20141;-69
2021/12/22 11:28:53;;;;;;;0.00;0.00;;;0.40;99.90;;;;;;4994706;28;20049;-69
2021/12/22 11:31:19;;;;;;;0.00;0.00;;;0.30;99.90;;;;;;4993323;28;20724;-68
2021/12/22 11:33:45;;;;;;;0.00;0.00;;;0.10;99.90;;;;;;4994406;28;20026;-69
2021/12/22 11:36:12;;;;;;;0.00;0.00;;;0.00;99.90;;;;;;4992751;28;20026;-69
2021/12/22 11:38:40;;;;;;;0.00;0.00;;;-0.10;99.90;;;;;;4988844;28;20029;-69
2021/12/22 11:41:11;;;;;;;0.00;0.00;;;-0.20;99.90;;;;;;4996033;28;20034;-68
2021/12/22 11:43:38;;;;;;;0.00;0.00;;;-0.20;99.90;;;;;;4990527;28;20105;-68
2021/12/22 11:46:05;;;;;;;0.00;0.00;;;-0.30;99.90;;;;;;4990241;28;20027;-68
2021/12/22 11:48:31;;;;;;;0.00;0.00;;;-0.30;99.90;;;;;;4990407;28;20398;-69
2021/12/22 11:50:57;;;;;;;0.00;0.00;;;-0.30;99.90;;;;;;4992513;28;20022;-69
2021/12/22 11:53:23;;;;;;;0.00;0.00;;;-0.30;99.90;;;;;;4990173;28;20061;-69
2021/12/22 11:55:55;;;;;;;0.00;0.00;;;-0.30;99.90;;;;;;4986721;28;20041;-69
2021/12/22 11:58:27;;;;;;;0.00;0.00;;;-0.30;99.90;;;;;;4992105;28;20022;-69
2021/12/22 12:00:55;;;;;;;0.00;0.00;;;-0.30;99.90;;;;;;4986273;28;20038;-69
2021/12/22 12:03:23;;;;;;;0.00;0.00;;;-0.30;99.90;;;;;;4985755;28;20220;-68
2021/12/22 12:06:07;;;;;;;0.00;0.00;;;-0.30;99.90;;;;;;4992234;28;20045;-68
2021/12/22 12:08:34;;;;;;;;;;;-0.30;99.90;;;;;;4992345;28;20033;-68
2021/12/22 12:11:00;;;;;;;0.00;0.00;;;-0.40;99.90;;;;;;4992544;28;20257;-69
2021/12/22 12:13:52;;;;;;;0.00;0.00;;;-0.40;99.90;;;;;;4990926;28;20073;-68
2021/12/22 12:22:12;;;;;;;0.00;0.00;;;-0.40;99.90;;;;;;4992719;28;20054;-69
2021/12/22 12:24:44;;;;;;;0.00;0.00;;;-0.40;99.90;;;;;;4993596;28;20346;-68
2021/12/22 12:27:49;;;;;;;0.00;0.00;;;-0.30;99.90;;;;;;5000578;28;20048;-69
2021/12/22 12:30:21;;;;;;;0.00;0.00;;;-0.30;99.90;;;;;;4994018;28;20072;-68
2021/12/22 12:32:49;;;;;;;0.00;0.00;;;-0.30;99.90;;;;;;4992898;28;20085;-68
2021/12/22 12:35:23;;;;;;;0.00;0.00;;;-0.30;99.90;;;;;;4993305;28;20066;-69
2021/12/22 12:38:06;;;;;;;0.00;0.00;;;-0.30;99.90;;;;;;4993427;28;20045;-69
2021/12/22 12:41:02;;;;;;;0.00;0.00;;;-0.30;99.90;;;;;;4995526;28;20026;-68
2021/12/22 12:46:20;;;;;;;0.00;0.00;;;-0.30;99.90;;;;;;4993250;28;20057;-69
2021/12/22 12:48:47;;;;;;;0.00;0.00;;;-0.30;99.90;;;;;;4992993;28;20043;-69
2021/12/22 12:51:25;;;;;;;0.00;0.00;;;-0.30;99.90;;;;;;4992414;28;20113;-68
2021/12/22 12:53:51;;;;;;;0.00;0.00;;;-0.30;99.90;;;;;;4995224;28;20034;-69
2021/12/22 12:56:23;;;;;;;0.00;0.00;;;-0.30;99.90;;;;;;4999262;28;20025;-69
2021/12/22 12:58:53;;;;;;;0.00;0.00;;;-0.30;99.90;;;;;;4995222;28;20027;-68
2021/12/22 13:01:38;;;;;;;0.00;0.00;;;-0.30;99.90;;;;;;4988540;28;20026;-69
2021/12/22 13:04:23;;;;;;;0.00;0.00;;;-0.30;99.90;;;;;;4992350;28;20048;-68
2021/12/22 13:07:00;;;;;;;0.00;0.00;;;-0.30;99.90;;;;;;4991441;28;20043;-69
2021/12/22 13:09:40;;;;;;;0.00;0.00;;;-0.20;99.90;;;;;;4985121;28;20029;-70
2021/12/22 13:17:44;;;;;;;0.00;0.00;;;-0.30;99.90;;;;;;4996249;28;20118;-69
2021/12/22 13:20:15;;;;;;;0.00;0.00;;;-0.30;99.90;;;;;;4991922;28;20117;-68
2021/12/22 13:22:45;;;;;;;0.00;0.00;;;-0.30;99.90;;;;;;4991660;28;20034;-68
2021/12/22 13:25:18;;;;;;;0.00;0.00;;;-0.30;99.90;;;;;;4999381;28;20106;-68
2021/12/22 13:27:49;;;;;;;0.00;0.00;;;-0.30;99.90;;;;;;4995157;28;20032;-68
2021/12/22 13:30:17;;;;;;;0.00;0.00;;;-0.30;99.90;;;;;;4996601;28;20624;-68
2021/12/22 13:33:05;;;;;;;0.00;0.00;;;-0.30;99.90;;;;;;4997633;28;20023;-69